Time;durP1;ratioP1;P1;durP2;ratioP2;P2;SDS_P1;SDS_P2;PMS_P1;PMS_P2;Temp;Humidity;BMP_temperature;BMP_pressure;BME280_temperature;BME280_humidity;BME280_pressure;Samples;Min_cycle;Max_cycle;Signal;HPM_P1;HPM_P2
2023/01/13 00:01:19;;;;;;;;;;;;;;;;;;5031609;28;1334;-69
2023/01/13 00:03:44;;;;;;;;;;;;;;;;;;5031613;28;1397;-69
2023/01/13 00:06:28;;;;;;;;;;;;;;;;;;5032493;28;928;-72
2023/01/13 00:08:53;;;;;;;;;;;;;;;;;;5030740;28;1636;-71
2023/01/13 00:11:19;;;;;;;;;;;;;;;;;;5032498;28;793;-71
2023/01/13 00:13:45;;;;;;;;;;;;;;;;;;5030801;28;1232;-71
2023/01/13 00:16:11;;;;;;;;;;;;;;;;;;5032235;28;1088;-71
2023/01/13 00:18:37;;;;;;;;;;;;;;;;;;5032402;28;1886;-71
2023/01/13 00:21:02;;;;;;;;;;;;;;;;;;5014607;28;1239;-71
2023/01/13 00:23:28;;;;;;;;;;;;;;;;;;5032198;28;890;-71
2023/01/13 00:25:54;;;;;;;;;;;;;;;;;;5030974;28;1256;-71
2023/01/13 00:28:19;;;;;;;;;;;;;;;;;;5032203;28;900;-77
2023/01/13 00:30:45;;;;;;;;;;;;;;;;;;5014606;28;1203;-78
2023/01/13 00:33:10;;;;;;;;;;;;;;;;;;5032515;28;1085;-77
2023/01/13 00:35:36;;;;;;;;;;;;;;;;;;5031224;28;1189;-77
2023/01/13 00:38:06;;;;;;;;;;;;;;;;;;5030891;28;1957;-77
2023/01/13 00:40:31;;;;;;;;;;;;;;;;;;5031145;28;1161;-77
2023/01/13 00:45:41;;;;;;;;;;;;;;;;;;5031599;28;643;-76
2023/01/13 00:48:08;;;;;;;;;;;;;;;;;;5030395;28;1247;-77
2023/01/13 00:50:34;;;;;;;;;;;;;;;;;;5032241;28;848;-77
2023/01/13 00:52:59;;;;;;;;;;;;;;;;;;5031893;28;896;-76
2023/01/13 00:55:25;;;;;;;;;;;;;;;;;;5030756;28;1086;-77
2023/01/13 00:57:50;;;;;;;;;;;;;;;;;;5031744;28;1906;-77
2023/01/13 01:00:16;;;;;;;;;;;;;;;;;;5030670;28;1328;-77
2023/01/13 01:02:41;;;;;;;;;;;;;;;;;;5014035;28;1418;-77
2023/01/13 01:05:06;;;;;;;;;;;;;;;;;;5030449;28;1219;-77
2023/01/13 01:07:32;;;;;;;;;;;;;;;;;;5032028;28;1018;-77
2023/01/13 01:09:57;;;;;;;;;;;;;;;;;;5014718;28;1169;-77
2023/01/13 01:12:22;;;;;;;;;;;;;;;;;;5030934;28;1220;-71
2023/01/13 01:14:47;;;;;;;;;;;;;;;;;;5014662;28;1352;-71
2023/01/13 01:17:13;;;;;;;;;;;;;;;;;;5030477;28;1357;-71
2023/01/13 01:19:38;;;;;;;;;;;;;;;;;;5030895;28;1970;-71
2023/01/13 01:22:03;;;;;;;;;;;;;;;;;;5030616;28;1326;-71
2023/01/13 01:24:29;;;;;;;;;;;;;;;;;;5014112;28;1259;-71
2023/01/13 01:26:54;;;;;;;;;;;;;;;;;;5013928;28;1260;-71
2023/01/13 01:29:19;;;;;;;;;;;;;;;;;;5030750;28;1160;-71
2023/01/13 01:31:45;;;;;;;;;;;;;;;;;;5030449;28;1315;-72
2023/01/13 01:34:10;;;;;;;;;;;;;;;;;;5031179;28;942;-71
2023/01/13 01:36:35;;;;;;;;;;;;;;;;;;5031391;28;893;-71
2023/01/13 01:39:01;;;;;;;;;;;;;;;;;;5013481;28;1908;-71
2023/01/13 01:41:28;;;;;;;;;;;;;;;;;;5031304;28;901;-71
2023/01/13 01:43:58;;;;;;;;;;;;;;;;;;5030008;28;1286;-71
2023/01/13 01:46:23;;;;;;;;;;;;;;;;;;5031329;28;837;-72
2023/01/13 01:48:49;;;;;;;;;;;;;;;;;;5013581;28;1381;-71
2023/01/13 01:51:14;;;;;;;;;;;;;;;;;;5029901;28;1178;-71
2023/01/13 01:53:40;;;;;;;;;;;;;;;;;;5033032;28;1306;-71
2023/01/13 01:56:08;;;;;;;;;;;;;;;;;;5033522;28;1292;-71
2023/01/13 01:58:36;;;;;;;;;;;;;;;;;;5033591;28;1906;-71
2023/01/13 02:01:01;;;;;;;;;;;;;;;;;;5033219;28;1209;-71
2023/01/13 02:03:27;;;;;;;;;;;;;;;;;;5033821;28;1303;-71
2023/01/13 02:05:52;;;;;;;;;;;;;;;;;;5034806;28;970;-71
2023/01/13 02:08:18;;;;;;;;;;;;;;;;;;5033250;28;1295;-71
2023/01/13 02:10:45;;;;;;;;;;;;;;;;;;5034603;28;805;-71
2023/01/13 02:13:12;;;;;;;;;;;;;;;;;;5033298;28;1454;-71
2023/01/13 02:15:45;;;;;;;;;;;;;;;;;;5034649;28;951;-71
2023/01/13 02:18:14;;;;;;;;;;;;;;;;;;5032981;28;1906;-71
2023/01/13 02:20:39;;;;;;;;;;;;;;;;;;5034402;28;849;-72
2023/01/13 02:24:52;;;;;;;;;;;;;;;;;;5034600;28;1066;-77
2023/01/13 02:26:08;;;;;;;;;;;;;;;;;;5034386;28;817;-76
2023/01/13 02:31:40;;;;;;;;;;;;;;;;;;5033193;28;1171;-77
2023/01/13 02:31:41;;;;;;;;;;;;;;;;;;5034258;28;790;-77
2023/01/13 02:34:07;;;;;;;;;;;;;;;;;;5034371;28;841;-76
2023/01/13 02:36:32;;;;;;;;;;;;;;;;;;5033516;28;1332;-76
2023/01/13 02:39:03;;;;;;;;;;;;;;;;;;5034713;28;1906;-76
2023/01/13 02:44:54;;;;;;;;;;;;;;;;;;4993326;28;988;-76
2023/01/13 02:47:21;;;;;;;;;;;;;;;;;;5031245;28;1194;-76
2023/01/13 02:49:49;;;;;;;;;;;;;;;;;;5034415;28;851;-76
2023/01/13 02:52:19;;;;;;;;;;;;;;;;;;5032722;28;1239;-76
2023/01/13 02:54:48;;;;;;;;;;;;;;;;;;5031654;28;1340;-76
2023/01/13 02:57:14;;;;;;;;;;;;;;;;;;5031299;28;1186;-76
2023/01/13 02:59:41;;;;;;;;;;;;;;;;;;5032239;28;1910;-77
2023/01/13 03:02:09;;;;;;;;;;;;;;;;;;5030383;28;1249;-77
2023/01/13 03:04:49;;;;;;;;;;;;;;;;;;5029799;28;1235;-76
2023/01/13 03:07:20;;;;;;;;;;;;;;;;;;5032325;28;1121;-76
2023/01/13 03:10:09;;;;;;;;;;;;;;;;;;5032143;28;1228;-76
2023/01/13 03:12:43;;;;;;;;;;;;;;;;;;5011372;28;1283;-76
2023/01/13 03:15:08;;;;;;;;;;;;;;;;;;5032171;28;1335;-76
2023/01/13 03:17:42;;;;;;;;;;;;;;;;;;5032671;28;1342;-76
2023/01/13 03:20:14;;;;;;;;;;;;;;;;;;5032185;28;1963;-77
2023/01/13 03:22:52;;;;;;;;;;;;;;;;;;5030251;28;1267;-76
2023/01/13 03:25:20;;;;;;;;;;;;;;;;;;5031911;28;1316;-77
2023/01/13 03:27:51;;;;;;;;;;;;;;;;;;5032117;28;1267;-76
2023/01/13 03:30:19;;;;;;;;;;;;;;;;;;5033472;28;833;-76
2023/01/13 03:32:46;;;;;;;;;;;;;;;;;;5033956;28;881;-77
2023/01/13 03:35:21;;;;;;;;;;;;;;;;;;5033068;28;881;-77
2023/01/13 03:37:50;;;;;;;;;;;;;;;;;;5033745;28;890;-77
2023/01/13 03:40:17;;;;;;;;;;;;;;;;;;5033087;28;1902;-76
2023/01/13 03:44:20;;;;;;;;;;;;;;;;;;5032071;28;1385;-76
2023/01/13 03:45:31;;;;;;;;;;;;;;;;;;5033307;28;869;-76
2023/01/13 03:47:58;;;;;;;;;;;;;;;;;;5033151;28;876;-76
2023/01/13 03:50:32;;;;;;;;;;;;;;;;;;5031224;28;1121;-76
2023/01/13 03:53:05;;;;;;;;;;;;;;;;;;5033218;28;660;-76
2023/01/13 03:55:32;;;;;;;;;;;;;;;;;;5031892;28;1263;-76
2023/01/13 03:58:05;;;;;;;;;;;;;;;;;;5031899;28;1894;-77
2023/01/13 04:00:39;;;;;;;;;;;;;;;;;;5031629;28;1375;-76
2023/01/13 04:03:08;;;;;;;;;;;;;;;;;;5031629;28;1156;-76
2023/01/13 04:05:36;;;;;;;;;;;;;;;;;;5033027;28;899;-76
2023/01/13 04:08:06;;;;;;;;;;;;;;;;;;5033156;28;895;-76
2023/01/13 04:10:39;;;;;;;;;;;;;;;;;;5032648;28;865;-76
2023/01/13 04:13:14;;;;;;;;;;;;;;;;;;5031768;28;1355;-77
2023/01/13 04:15:41;;;;;;;;;;;;;;;;;;5032489;28;970;-76
2023/01/13 04:18:14;;;;;;;;;;;;;;;;;;5030820;28;1894;-76
2023/01/13 04:20:40;;;;;;;;;;;;;;;;;;5031012;28;1212;-76
2023/01/13 04:23:06;;;;;;;;;;;;;;;;;;5032600;28;825;-76
2023/01/13 04:25:31;;;;;;;;;;;;;;;;;;5032318;28;848;-76
2023/01/13 04:27:56;;;;;;;;;;;;;;;;;;5014534;28;1433;-76
2023/01/13 04:30:22;;;;;;;;;;;;;;;;;;5030720;28;1173;-77
2023/01/13 04:32:47;;;;;;;;;;;;;;;;;;5031465;28;821;-76
2023/01/13 04:35:12;;;;;;;;;;;;;;;;;;5031392;28;884;-71
2023/01/13 04:37:37;;;;;;;;;;;;;;;;;;5030859;28;881;-71
2023/01/13 04:40:03;;;;;;;;;;;;;;;;;;5031165;28;1901;-71
2023/01/13 04:42:28;;;;;;;;;;;;;;;;;;5030424;28;1184;-71
2023/01/13 04:44:55;;;;;;;;;;;;;;;;;;5014416;28;1183;-71
2023/01/13 04:47:20;;;;;;;;;;;;;;;;;;5032194;28;837;-71
2023/01/13 04:49:46;;;;;;;;;;;;;;;;;;5014093;28;1191;-71
2023/01/13 04:52:11;;;;;;;;;;;;;;;;;;5032035;28;880;-71
2023/01/13 04:54:36;;;;;;;;;;;;;;;;;;5031958;28;1070;-71
2023/01/13 04:57:02;;;;;;;;;;;;;;;;;;5025348;28;2082;-71
2023/01/13 04:59:27;;;;;;;;;;;;;;;;;;5030291;28;1918;-71
2023/01/13 05:01:52;;;;;;;;;;;;;;;;;;5030504;28;1338;-71
2023/01/13 05:04:18;;;;;;;;;;;;;;;;;;5031911;28;959;-71
2023/01/13 05:06:43;;;;;;;;;;;;;;;;;;5031825;28;904;-71
2023/01/13 05:09:10;;;;;;;;;;;;;;;;;;5030814;28;1299;-71
2023/01/13 05:17:03;;;;;;;;;;;;;;;;;;5031189;28;666;-71
2023/01/13 05:19:37;;;;;;;;;;;;;;;;;;5032048;28;1906;-71
2023/01/13 05:27:34;;;;;;;;;;;;;;;;;;5033536;28;716;-71
2023/01/13 05:29:59;;;;;;;;;;;;;;;;;;5034616;28;643;-71
2023/01/13 05:32:26;;;;;;;;;;;;;;;;;;5035585;28;1241;-71
2023/01/13 05:34:52;;;;;;;;;;;;;;;;;;5035773;28;935;-70
2023/01/13 05:37:17;;;;;;;;;;;;;;;;;;5035679;28;998;-71
2023/01/13 05:45:11;;;;;;;;;;;;;;;;;;5032541;28;1011;-71
2023/01/13 05:47:36;;;;;;;;;;;;;;;;;;5032471;28;1161;-71
2023/01/13 05:50:02;;;;;;;;;;;;;;;;;;5031886;28;1170;-71
2023/01/13 05:52:28;;;;;;;;;;;;;;;;;;5033763;28;1236;-71
2023/01/13 05:54:53;;;;;;;;;;;;;;;;;;5035142;28;1086;-70
2023/01/13 05:57:18;;;;;;;;;;;;;;;;;;5034481;28;1272;-70
2023/01/13 05:59:43;;;;;;;;;;;;;;;;;;5034905;28;1918;-71
2023/01/13 06:02:09;;;;;;;;;;;;;;;;;;5035053;28;999;-71
2023/01/13 06:04:36;;;;;;;;;;;;;;;;;;5033622;28;1221;-71
2023/01/13 06:07:02;;;;;;;;;;;;;;;;;;5017267;28;1358;-71
2023/01/13 06:09:27;;;;;;;;;;;;;;;;;;5034807;28;991;-71
2023/01/13 06:11:52;;;;;;;;;;;;;;;;;;5033855;28;1207;-71
2023/01/13 06:14:17;;;;;;;;;;;;;;;;;;5017059;28;1240;-71
2023/01/13 06:16:44;;;;;;;;;;;;;;;;;;5016586;28;1399;-71
2023/01/13 06:19:11;;;;;;;;;;;;;;;;;;5034834;28;1961;-71
2023/01/13 06:21:37;;;;;;;;;;;;;;;;;;5033332;28;1524;-71
2023/01/13 06:24:02;;;;;;;;;;;;;;;;;;5033234;28;1406;-71
2023/01/13 06:26:30;;;;;;;;;;;;;;;;;;5016355;28;1576;-71
2023/01/13 06:28:55;;;;;;;;;;;;;;;;;;5034891;28;837;-70
2023/01/13 06:31:22;;;;;;;;;;;;;;;;;;5034656;28;876;-71
2023/01/13 06:33:49;;;;;;;;;;;;;;;;;;5033281;28;801;-71
2023/01/13 06:36:17;;;;;;;;;;;;;;;;;;5034521;28;841;-70
2023/01/13 06:38:46;;;;;;;;;;;;;;;;;;5032551;28;1997;-71
2023/01/13 06:41:11;;;;;;;;;;;;;;;;;;5032988;28;1355;-71
2023/01/13 06:43:37;;;;;;;;;;;;;;;;;;5034277;28;833;-71
2023/01/13 06:46:03;;;;;;;;;;;;;;;;;;5034281;28;778;-70
2023/01/13 06:48:31;;;;;;;;;;;;;;;;;;5034433;28;983;-71
2023/01/13 06:50:57;;;;;;;;;;;;;;;;;;5034526;28;789;-70
2023/01/13 06:53:22;;;;;;;;;;;;;;;;;;5032907;28;939;-70
2023/01/13 06:55:47;;;;;;;;;;;;;;;;;;5016403;28;1295;-71
2023/01/13 06:58:12;;;;;;;;;;;;;;;;;;5032601;28;1950;-71
2023/01/13 07:00:38;;;;;;;;;;;;;;;;;;5032619;28;802;-70
2023/01/13 07:03:04;;;;;;;;;;;;;;;;;;5033035;28;825;-70
2023/01/13 07:05:29;;;;;;;;;;;;;;;;;;5032492;28;1299;-70
2023/01/13 07:07:55;;;;;;;;;;;;;;;;;;5032856;28;1272;-69
2023/01/13 07:10:21;;;;;;;;;;;;;;;;;;5034789;28;572;-70
2023/01/13 07:15:31;;;;;;;;;;;;;;;;;;5033654;28;620;-69
2023/01/13 07:17:57;;;;;;;;;;;;;;;;;;5033963;28;904;-70
2023/01/13 07:20:23;;;;;;;;;;;;;;;;;;5031804;28;1906;-69
2023/01/13 07:22:52;;;;;;;;;;;;;;;;;;5032441;28;1338;-70
2023/01/13 07:25:17;;;;;;;;;;;;;;;;;;5032802;28;1200;-70
2023/01/13 07:27:43;;;;;;;;;;;;;;;;;;5032313;28;901;-69
2023/01/13 07:30:08;;;;;;;;;;;;;;;;;;5015325;28;1286;-69
2023/01/13 07:32:34;;;;;;;;;;;;;;;;;;5031354;28;1223;-69
2023/01/13 07:35:04;;;;;;;;;;;;;;;;;;5033062;28;920;-69
2023/01/13 07:37:31;;;;;;;;;;;;;;;;;;5032948;28;868;-68
2023/01/13 07:39:56;;;;;;;;;;;;;;;;;;5033537;28;1954;-69
2023/01/13 07:45:06;;;;;;;;;;;;;;;;;;5032675;28;684;-70
2023/01/13 07:47:31;;;;;;;;;;;;;;;;;;5033166;28;821;-70
2023/01/13 07:49:57;;;;;;;;;;;;;;;;;;5014497;28;1373;-69
2023/01/13 07:52:22;;;;;;;;;;;;;;;;;;5033227;28;821;-69
2023/01/13 07:54:48;;;;;;;;;;;;;;;;;;5031784;28;1098;-69
2023/01/13 07:57:13;;;;;;;;;;;;;;;;;;5033017;28;1111;-69
2023/01/13 07:59:39;;;;;;;;;;;;;;;;;;5014962;28;1971;-69
2023/01/13 08:02:04;;;;;;;;;;;;;;;;;;5031361;28;920;-69
2023/01/13 08:04:29;;;;;;;;;;;;;;;;;;5031326;28;848;-69
2023/01/13 08:06:55;;;;;;;;;;;;;;;;;;5031439;28;897;-69
2023/01/13 08:09:20;;;;;;;;;;;;;;;;;;5015094;28;1343;-69
2023/01/13 08:13:16;;;;;;;;;;;;;;;;;;5031264;28;979;-69
2023/01/13 08:14:30;;;;;;;;;;;;;;;;;;5032831;28;853;-69
2023/01/13 08:16:56;;;;;;;;;;;;;;;;;;5031585;28;1276;-69
2023/01/13 08:19:22;;;;;;;;;;;;;;;;;;5032301;28;1894;-69
2023/01/13 08:21:47;;;;;;;;;;;;;;;;;;5015029;28;1163;-69
2023/01/13 08:24:12;;;;;;;;;;;;;;;;;;5031688;28;787;-69
2023/01/13 08:26:37;;;;;;;;;;;;;;;;;;5014847;28;1306;-69
2023/01/13 08:29:03;;;;;;;;;;;;;;;;;;5033578;28;920;-69
2023/01/13 08:31:31;;;;;;;;;;;;;;;;;;5032379;28;1398;-69
2023/01/13 08:33:56;;;;;;;;;;;;;;;;;;5015895;28;1587;-69
2023/01/13 08:36:24;;;;;;;;;;;;;;;;;;5016010;28;1126;-69
2023/01/13 08:38:49;;;;;;;;;;;;;;;;;;5032349;28;1961;-69
2023/01/13 08:41:53;;;;;;;;;;;;;;;;;;5032835;28;916;-69
2023/01/13 08:44:02;;;;;;;;;;;;;;;;;;5032951;28;999;-68
2023/01/13 08:46:27;;;;;;;;;;;;;;;;;;5032345;28;910;-68
2023/01/13 08:48:52;;;;;;;;;;;;;;;;;;5032443;28;1138;-68
2023/01/13 08:51:17;;;;;;;;;;;;;;;;;;5031841;28;798;-68
2023/01/13 08:53:43;;;;;;;;;;;;;;;;;;5031305;28;1587;-68
2023/01/13 08:56:12;;;;;;;;;;;;;;;;;;5032179;28;817;-68
2023/01/13 08:58:37;;;;;;;;;;;;;;;;;;5032074;28;1906;-67
2023/01/13 09:01:03;;;;;;;;;;;;;;;;;;5031281;28;825;-68
2023/01/13 09:03:28;;;;;;;;;;;;;;;;;;5031181;28;901;-68
2023/01/13 09:05:54;;;;;;;;;;;;;;;;;;5013329;28;1263;-69
2023/01/13 09:08:19;;;;;;;;;;;;;;;;;;5014178;28;1353;-68
2023/01/13 09:10:44;;;;;;;;;;;;;;;;;;5030842;28;988;-68
2023/01/13 09:13:11;;;;;;;;;;;;;;;;;;5029220;28;1280;-68
2023/01/13 09:15:37;;;;;;;;;;;;;;;;;;5030122;28;1268;-68
2023/01/13 09:18:03;;;;;;;;;;;;;;;;;;5031507;28;814;-68
2023/01/13 09:20:28;;;;;;;;;;;;;;;;;;5030800;28;1914;-68
2023/01/13 09:22:53;;;;;;;;;;;;;;;;;;5014392;28;1449;-68
2023/01/13 09:25:19;;;;;;;;;;;;;;;;;;5031062;28;857;-68
2023/01/13 09:27:44;;;;;;;;;;;;;;;;;;5031088;28;849;-67
2023/01/13 09:30:10;;;;;;;;;;;;;;;;;;5030930;28;1007;-67
2023/01/13 09:32:37;;;;;;;;;;;;;;;;;;5031480;28;1184;-67
2023/01/13 09:35:03;;;;;;;;;;;;;;;;;;5030814;28;1105;-67
2023/01/13 09:37:35;;;;;;;;;;;;;;;;;;5030617;28;880;-67
2023/01/13 09:40:01;;;;;;;;;;;;;;;;;;5031475;28;1946;-67
2023/01/13 09:45:19;;;;;;;;;;;;;;;;;;5031622;28;644;-67
2023/01/13 09:47:50;;;;;;;;;;;;;;;;;;5031394;28;849;-68
2023/01/13 09:50:22;;;;;;;;;;;;;;;;;;5031482;28;806;-67
2023/01/13 09:52:48;;;;;;;;;;;;;;;;;;5031698;28;868;-67
2023/01/13 09:55:13;;;;;;;;;;;;;;;;;;5029884;28;1314;-67
2023/01/13 09:57:39;;;;;;;;;;;;;;;;;;5029887;28;1279;-66
2023/01/13 10:00:12;;;;;;;;;;;;;;;;;;5031589;28;1967;-67
2023/01/13 10:02:53;;;;;;;;;;;;;;;;;;5031715;28;829;-67
2023/01/13 10:05:31;;;;;;;;;;;;;;;;;;5030394;28;1239;-67
2023/01/13 10:07:58;;;;;;;;;;;;;;;;;;5031400;28;841;-67
2023/01/13 10:10:39;;;;;;;;;;;;;;;;;;5031747;28;817;-67
2023/01/13 10:13:13;;;;;;;;;;;;;;;;;;5030821;28;1318;-67
2023/01/13 10:15:40;;;;;;;;;;;;;;;;;;5034099;28;1188;-66
2023/01/13 10:18:13;;;;;;;;;;;;;;;;;;5033288;28;1411;-67
2023/01/13 10:20:46;;;;;;;;;;;;;;;;;;5033474;28;1223;-66
2023/01/13 10:23:11;;;;;;;;;;;;;;;;;;5034832;28;844;-67
2023/01/13 10:25:44;;;;;;;;;;;;;;;;;;5034587;28;996;-66
2023/01/13 10:28:11;;;;;;;;;;;;;;;;;;5033514;28;1357;-67
2023/01/13 10:30:39;;;;;;;;;;;;;;;;;;5035023;28;814;-67
2023/01/13 10:33:10;;;;;;;;;;;;;;;;;;5033003;28;1263;-67
2023/01/13 10:35:56;;;;;;;;;;;;;;;;;;5033071;28;1118;-67
2023/01/13 10:38:23;;;;;;;;;;;;;;;;;;5032597;28;1906;-67
2023/01/13 10:41:02;;;;;;;;;;;;;;;;;;5034268;28;1028;-67
2023/01/13 10:43:29;;;;;;;;;;;;;;;;;;5033827;28;1151;-67
2023/01/13 10:45:58;;;;;;;;;;;;;;;;;;5032449;28;1038;-67
2023/01/13 10:48:30;;;;;;;;;;;;;;;;;;5032597;28;1326;-66
2023/01/13 10:50:55;;;;;;;;;;;;;;;;;;5032180;28;1408;-67
2023/01/13 10:53:24;;;;;;;;;;;;;;;;;;5016050;28;1260;-67
2023/01/13 10:56:00;;;;;;;;;;;;;;;;;;5033847;28;837;-67
2023/01/13 10:58:26;;;;;;;;;;;;;;;;;;5033652;28;1906;-67
2023/01/13 11:01:03;;;;;;;;;;;;;;;;;;5015752;28;1237;-67
2023/01/13 11:03:36;;;;;;;;;;;;;;;;;;5033418;28;1184;-67
2023/01/13 11:06:02;;;;;;;;;;;;;;;;;;5033376;28;833;-67
2023/01/13 11:08:39;;;;;;;;;;;;;;;;;;5033676;28;940;-67
2023/01/13 11:11:23;;;;;;;;;;;;;;;;;;5031940;28;1279;-67
2023/01/13 11:16:38;;;;;;;;;;;;;;;;;;5033510;28;763;-67
2023/01/13 11:19:13;;;;;;;;;;;;;;;;;;5033239;28;1910;-67
2023/01/13 11:21:42;;;;;;;;;;;;;;;;;;5033854;28;906;-68
2023/01/13 11:24:10;;;;;;;;;;;;;;;;;;5031683;28;1092;-67
2023/01/13 11:27:08;;;;;;;;;;;;;;;;;;5031322;28;1346;-67
2023/01/13 11:29:36;;;;;;;;;;;;;;;;;;5010514;28;1042;-67
2023/01/13 11:32:15;;;;;;;;;;;;;;;;;;5033489;28;1066;-67
2023/01/13 11:34:44;;;;;;;;;;;;;;;;;;5032745;28;1398;-67
2023/01/13 11:37:17;;;;;;;;;;;;;;;;;;5031601;28;1251;-67
2023/01/13 11:39:55;;;;;;;;;;;;;;;;;;5032121;28;1902;-67
2023/01/13 11:42:29;;;;;;;;;;;;;;;;;;5033499;28;786;-67
2023/01/13 11:45:15;;;;;;;;;;;;;;;;;;5031630;28;1187;-68
2023/01/13 11:47:41;;;;;;;;;;;;;;;;;;5032863;28;932;-67
2023/01/13 11:50:17;;;;;;;;;;;;;;;;;;5033034;28;986;-67
2023/01/13 11:52:48;;;;;;;;;;;;;;;;;;5033071;28;861;-67
2023/01/13 11:55:20;;;;;;;;;;;;;;;;;;5031495;28;920;-67
2023/01/13 11:57:45;;;;;;;;;;;;;;;;;;5032971;28;1276;-75
2023/01/13 12:00:30;;;;;;;;;;;;;;;;;;5032961;28;1986;-75
2023/01/13 12:03:01;;;;;;;;;;;;;;;;;;5032010;28;915;-75
2023/01/13 12:05:26;;;;;;;;;;;;;;;;;;5033016;28;1431;-75
2023/01/13 12:08:07;;;;;;;;;;;;;;;;;;5031044;28;1493;-75
2023/01/13 12:10:36;;;;;;;;;;;;;;;;;;5031545;28;1385;-75
2023/01/13 12:13:19;;;;;;;;;;;;;;;;;;5031568;28;1195;-75
2023/01/13 12:16:11;;;;;;;;;;;;;;;;;;5031123;28;1274;-75
2023/01/13 12:18:41;;;;;;;;;;;;;;;;;;5008377;28;1910;-75
2023/01/13 12:21:17;;;;;;;;;;;;;;;;;;5032693;28;822;-74
2023/01/13 12:23:59;;;;;;;;;;;;;;;;;;5031555;28;1113;-75
2023/01/13 12:26:24;;;;;;;;;;;;;;;;;;5031279;28;1229;-74
2023/01/13 12:28:49;;;;;;;;;;;;;;;;;;5031219;28;1303;-74
2023/01/13 12:31:18;;;;;;;;;;;;;;;;;;5030628;28;1315;-74
2023/01/13 12:33:49;;;;;;;;;;;;;;;;;;5014583;28;1240;-75
2023/01/13 12:36:47;;;;;;;;;;;;;;;;;;5030577;28;1232;-74
2023/01/13 12:39:12;;;;;;;;;;;;;;;;;;5030791;28;1957;-75
2023/01/13 12:44:32;;;;;;;;;;;;;;;;;;5032594;28;671;-74
2023/01/13 12:46:58;;;;;;;;;;;;;;;;;;5032048;28;860;-74
2023/01/13 12:49:25;;;;;;;;;;;;;;;;;;5031948;28;782;-75
2023/01/13 12:51:50;;;;;;;;;;;;;;;;;;5032186;28;857;-76
2023/01/13 12:54:41;;;;;;;;;;;;;;;;;;5031611;28;869;-75
2023/01/13 12:57:15;;;;;;;;;;;;;;;;;;5013264;28;1192;-75
2023/01/13 12:59:47;;;;;;;;;;;;;;;;;;5031838;28;1919;-76
2023/01/13 13:02:14;;;;;;;;;;;;;;;;;;5030551;28;1601;-75
2023/01/13 13:04:53;;;;;;;;;;;;;;;;;;5030417;28;1259;-75
2023/01/13 13:07:32;;;;;;;;;;;;;;;;;;5032191;28;1124;-75
2023/01/13 13:10:03;;;;;;;;;;;;;;;;;;5030387;28;1211;-75
2023/01/13 13:15:42;;;;;;;;;;;;;;;;;;5031734;28;847;-75
2023/01/13 13:18:17;;;;;;;;;;;;;;;;;;5017177;28;1145;-75
2023/01/13 13:20:54;;;;;;;;;;;;;;;;;;5031870;28;1910;-75
2023/01/13 13:23:44;;;;;;;;;;;;;;;;;;5030157;28;1114;-75
2023/01/13 13:26:19;;;;;;;;;;;;;;;;;;5031393;28;924;-75
2023/01/13 13:29:03;;;;;;;;;;;;;;;;;;5031859;28;970;-75
2023/01/13 13:31:43;;;;;;;;;;;;;;;;;;5031487;28;601;-74
2023/01/13 13:34:21;;;;;;;;;;;;;;;;;;5031764;28;924;-75
2023/01/13 13:36:55;;;;;;;;;;;;;;;;;;5030021;28;1422;-75
2023/01/13 13:47:44;;;;;;;;;;;;;;;;;;5031199;28;717;-75
2023/01/13 13:50:19;;;;;;;;;;;;;;;;;;5034943;28;987;-76
2023/01/13 13:53:06;;;;;;;;;;;;;;;;;;5034276;28;1200;-76
2023/01/13 13:55:31;;;;;;;;;;;;;;;;;;5035151;28;1070;-75
2023/01/13 13:57:57;;;;;;;;;;;;;;;;;;5033521;28;1367;-75
2023/01/13 14:00:23;;;;;;;;;;;;;;;;;;5033425;28;1957;-75
2023/01/13 14:02:51;;;;;;;;;;;;;;;;;;5033975;28;1319;-75
2023/01/13 14:05:18;;;;;;;;;;;;;;;;;;5035431;28;841;-69
2023/01/13 14:07:45;;;;;;;;;;;;;;;;;;5035190;28;861;-69
2023/01/13 14:10:21;;;;;;;;;;;;;;;;;;5033190;28;1227;-68
2023/01/13 14:12:46;;;;;;;;;;;;;;;;;;5033739;28;1254;-69
2023/01/13 14:15:25;;;;;;;;;;;;;;;;;;5033581;28;1192;-68
2023/01/13 14:17:54;;;;;;;;;;;;;;;;;;5034818;28;845;-68
2023/01/13 14:20:19;;;;;;;;;;;;;;;;;;5033197;28;1910;-68
2023/01/13 14:22:46;;;;;;;;;;;;;;;;;;5033299;28;1329;-69
2023/01/13 14:25:32;;;;;;;;;;;;;;;;;;5034812;28;936;-68
2023/01/13 14:27:58;;;;;;;;;;;;;;;;;;5034673;28;888;-68
2023/01/13 14:30:25;;;;;;;;;;;;;;;;;;5034756;28;778;-68
2023/01/13 14:32:50;;;;;;;;;;;;;;;;;;5034867;28;1004;-68
2023/01/13 14:35:16;;;;;;;;;;;;;;;;;;5033196;28;1284;-68
2023/01/13 14:37:42;;;;;;;;;;;;;;;;;;5033412;28;1216;-68
2023/01/13 14:40:26;;;;;;;;;;;;;;;;;;5034280;28;1910;-68
2023/01/13 14:42:56;;;;;;;;;;;;;;;;;;5033663;28;1113;-68
2023/01/13 14:45:25;;;;;;;;;;;;;;;;;;5033055;28;1219;-68
2023/01/13 14:47:52;;;;;;;;;;;;;;;;;;5016963;28;1227;-68
2023/01/13 14:50:26;;;;;;;;;;;;;;;;;;5016662;28;1283;-68
2023/01/13 14:52:56;;;;;;;;;;;;;;;;;;5032854;28;1358;-68
2023/01/13 14:55:39;;;;;;;;;;;;;;;;;;5034267;28;778;-67
2023/01/13 14:58:16;;;;;;;;;;;;;;;;;;5033270;28;1058;-68
2023/01/13 15:00:42;;;;;;;;;;;;;;;;;;5032802;28;1902;-68
2023/01/13 15:03:07;;;;;;;;;;;;;;;;;;5016271;28;1159;-68
2023/01/13 15:05:34;;;;;;;;;;;;;;;;;;5032594;28;872;-68
2023/01/13 15:08:08;;;;;;;;;;;;;;;;;;5032620;28;1420;-68
2023/01/13 15:10:40;;;;;;;;;;;;;;;;;;5032693;28;1208;-68
2023/01/13 15:13:26;;;;;;;;;;;;;;;;;;5032642;28;1215;-68
2023/01/13 15:15:56;;;;;;;;;;;;;;;;;;5012166;28;1135;-68
2023/01/13 15:18:21;;;;;;;;;;;;;;;;;;5032303;28;1164;-68
2023/01/13 15:20:49;;;;;;;;;;;;;;;;;;5032232;28;1947;-68
2023/01/13 15:23:15;;;;;;;;;;;;;;;;;;5032097;28;1231;-68
2023/01/13 15:25:41;;;;;;;;;;;;;;;;;;5015959;28;1164;-68
2023/01/13 15:28:10;;;;;;;;;;;;;;;;;;5032059;28;1322;-68
2023/01/13 15:30:36;;;;;;;;;;;;;;;;;;5032469;28;1176;-68
2023/01/13 15:33:01;;;;;;;;;;;;;;;;;;5015849;28;1279;-68
2023/01/13 15:35:27;;;;;;;;;;;;;;;;;;5015446;28;1367;-68
2023/01/13 15:37:54;;;;;;;;;;;;;;;;;;5033416;28;969;-68
2023/01/13 15:40:29;;;;;;;;;;;;;;;;;;5031947;28;1902;-68
2023/01/13 15:48:25;;;;;;;;;;;;;;;;;;5032638;28;720;-68
2023/01/13 15:50:54;;;;;;;;;;;;;;;;;;5032336;28;1209;-68
2023/01/13 15:53:19;;;;;;;;;;;;;;;;;;5033484;28;920;-68
2023/01/13 15:55:49;;;;;;;;;;;;;;;;;;5015838;28;1442;-68
2023/01/13 15:58:18;;;;;;;;;;;;;;;;;;5032789;28;1221;-68
2023/01/13 16:00:43;;;;;;;;;;;;;;;;;;5031787;28;1971;-70
2023/01/13 16:03:12;;;;;;;;;;;;;;;;;;5031786;28;1216;-70
2023/01/13 16:05:38;;;;;;;;;;;;;;;;;;5015176;28;1117;-68
2023/01/13 16:08:04;;;;;;;;;;;;;;;;;;5031237;28;1309;-69
2023/01/13 16:10:29;;;;;;;;;;;;;;;;;;5030877;28;1123;-69
2023/01/13 16:12:57;;;;;;;;;;;;;;;;;;5015481;28;1601;-68
2023/01/13 16:15:24;;;;;;;;;;;;;;;;;;5015572;28;1137;-68
2023/01/13 16:17:55;;;;;;;;;;;;;;;;;;5031464;28;1211;-68
2023/01/13 16:20:23;;;;;;;;;;;;;;;;;;5031160;28;1906;-68
2023/01/13 16:22:49;;;;;;;;;;;;;;;;;;5031220;28;853;-68
2023/01/13 16:25:19;;;;;;;;;;;;;;;;;;5015011;28;1316;-69
2023/01/13 16:27:45;;;;;;;;;;;;;;;;;;5031028;28;1354;-69
2023/01/13 16:30:28;;;;;;;;;;;;;;;;;;5031104;28;837;-69
2023/01/13 16:32:54;;;;;;;;;;;;;;;;;;5030851;28;1281;-68
2023/01/13 16:35:19;;;;;;;;;;;;;;;;;;5014804;28;1303;-69
2023/01/13 16:37:48;;;;;;;;;;;;;;;;;;5030987;28;1216;-68
2023/01/13 16:40:23;;;;;;;;;;;;;;;;;;5030245;28;1902;-69
2023/01/13 16:42:49;;;;;;;;;;;;;;;;;;5030892;28;1298;-69
2023/01/13 16:45:14;;;;;;;;;;;;;;;;;;5031788;28;869;-69
2023/01/13 16:47:39;;;;;;;;;;;;;;;;;;5030860;28;1334;-69
2023/01/13 16:50:05;;;;;;;;;;;;;;;;;;5030852;28;850;-69
2023/01/13 16:52:30;;;;;;;;;;;;;;;;;;5031786;28;1235;-69
2023/01/13 16:54:56;;;;;;;;;;;;;;;;;;5030398;28;1334;-69
2023/01/13 16:57:22;;;;;;;;;;;;;;;;;;5029487;28;1215;-67
2023/01/13 16:59:47;;;;;;;;;;;;;;;;;;5012158;28;1906;-68
2023/01/13 17:02:15;;;;;;;;;;;;;;;;;;5012889;28;1241;-68
2023/01/13 17:04:40;;;;;;;;;;;;;;;;;;5030940;28;1294;-68
2023/01/13 17:07:07;;;;;;;;;;;;;;;;;;5030123;28;1142;-68
2023/01/13 17:09:32;;;;;;;;;;;;;;;;;;5028195;28;1205;-68
2023/01/13 17:11:58;;;;;;;;;;;;;;;;;;5031384;28;1231;-68
2023/01/13 17:14:23;;;;;;;;;;;;;;;;;;5030600;28;920;-68
2023/01/13 17:16:50;;;;;;;;;;;;;;;;;;5029629;28;1279;-68
2023/01/13 17:19:15;;;;;;;;;;;;;;;;;;5030852;28;2015;-68
2023/01/13 17:21:41;;;;;;;;;;;;;;;;;;5014060;28;1205;-68
2023/01/13 17:24:08;;;;;;;;;;;;;;;;;;5016955;28;1239;-68
2023/01/13 17:26:40;;;;;;;;;;;;;;;;;;5034484;28;1280;-69
2023/01/13 17:29:08;;;;;;;;;;;;;;;;;;5034640;28;1184;-68
2023/01/13 17:31:34;;;;;;;;;;;;;;;;;;5035765;28;793;-68
2023/01/13 17:34:00;;;;;;;;;;;;;;;;;;5036105;28;1015;-68
2023/01/13 17:36:25;;;;;;;;;;;;;;;;;;5034412;28;1529;-68
2023/01/13 17:38:51;;;;;;;;;;;;;;;;;;5035857;28;1956;-68
2023/01/13 17:41:17;;;;;;;;;;;;;;;;;;5036033;28;894;-68
2023/01/13 17:43:45;;;;;;;;;;;;;;;;;;5035316;28;892;-68
2023/01/13 17:46:11;;;;;;;;;;;;;;;;;;5034528;28;999;-67
2023/01/13 17:48:36;;;;;;;;;;;;;;;;;;5033808;28;1231;-67
2023/01/13 17:51:05;;;;;;;;;;;;;;;;;;5035526;28;931;-67
2023/01/13 17:53:30;;;;;;;;;;;;;;;;;;5035271;28;888;-67
2023/01/13 17:55:56;;;;;;;;;;;;;;;;;;5017114;28;1168;-67
2023/01/13 17:58:22;;;;;;;;;;;;;;;;;;5033093;28;1310;-67
2023/01/13 18:00:47;;;;;;;;;;;;;;;;;;5033692;28;1985;-71
2023/01/13 18:03:14;;;;;;;;;;;;;;;;;;5035394;28;842;-72
2023/01/13 18:05:39;;;;;;;;;;;;;;;;;;5033199;28;1492;-72
2023/01/13 18:08:05;;;;;;;;;;;;;;;;;;5033609;28;755;-72
2023/01/13 18:10:31;;;;;;;;;;;;;;;;;;5033547;28;1239;-72
2023/01/13 18:12:56;;;;;;;;;;;;;;;;;;5033697;28;1299;-73